sensor_id;sensor_type;location;lat;lon;timestamp;P1;durP1;ratioP1;P2;durP2;ratioP2
14599;SDS011;7386;45.586;12.854;2023-06-22T00:00:37;14.35;;;12.88;;
14599;SDS011;7386;45.586;12.854;2023-06-22T00:03:08;14.85;;;12.93;;
14599;SDS011;7386;45.586;12.854;2023-06-22T00:05:38;18.08;;;13.35;;
14599;SDS011;7386;45.586;12.854;2023-06-22T00:08:07;14.48;;;12.82;;
14599;SDS011;7386;45.586;12.854;2023-06-22T00:10:35;13.68;;;12.30;;
14599;SDS011;7386;45.586;12.854;2023-06-22T00:13:04;13.57;;;12.10;;
14599;SDS011;7386;45.586;12.854;2023-06-22T00:15:33;14.98;;;13.48;;
14599;SDS011;7386;45.586;12.854;2023-06-22T00:18:02;14.48;;;12.98;;
14599;SDS011;7386;45.586;12.854;2023-06-22T00:20:31;16.80;;;12.82;;
14599;SDS011;7386;45.586;12.854;2023-06-22T00:23:05;14.73;;;13.23;;
14599;SDS011;7386;45.586;12.854;2023-06-22T00:25:35;15.40;;;12.35;;
14599;SDS011;7386;45.586;12.854;2023-06-22T00:28:03;12.77;;;11.48;;
14599;SDS011;7386;45.586;12.854;2023-06-22T00:30:32;13.35;;;11.95;;
14599;SDS011;7386;45.586;12.854;2023-06-22T00:33:01;13.32;;;12.02;;
14599;SDS011;7386;45.586;12.854;2023-06-22T00:35:29;13.75;;;11.45;;
14599;SDS011;7386;45.586;12.854;2023-06-22T00:37:58;13.68;;;12.18;;
14599;SDS011;7386;45.586;12.854;2023-06-22T00:40:30;13.52;;;12.13;;
14599;SDS011;7386;45.586;12.854;2023-06-22T00:42:59;13.50;;;12.10;;
14599;SDS011;7386;45.586;12.854;2023-06-22T00:45:27;13.63;;;12.02;;
14599;SDS011;7386;45.586;12.854;2023-06-22T00:47:57;14.40;;;12.50;;
14599;SDS011;7386;45.586;12.854;2023-06-22T00:50:26;12.95;;;11.57;;
14599;SDS011;7386;45.586;12.854;2023-06-22T00:53:00;13.50;;;12.20;;
14599;SDS011;7386;45.586;12.854;2023-06-22T00:55:36;15.85;;;12.80;;
14599;SDS011;7386;45.586;12.854;2023-06-22T00:58:06;13.77;;;12.38;;
14599;SDS011;7386;45.586;12.854;2023-06-22T01:00:37;14.70;;;13.10;;
14599;SDS011;7386;45.586;12.854;2023-06-22T01:03:06;14.40;;;12.98;;
14599;SDS011;7386;45.586;12.854;2023-06-22T01:05:37;16.27;;;13.57;;
14599;SDS011;7386;45.586;12.854;2023-06-22T01:08:09;14.80;;;13.30;;
14599;SDS011;7386;45.586;12.854;2023-06-22T01:10:43;15.52;;;14.02;;
14599;SDS011;7386;45.586;12.854;2023-06-22T01:13:16;14.43;;;13.02;;
14599;SDS011;7386;45.586;12.854;2023-06-22T01:15:45;14.13;;;12.70;;
14599;SDS011;7386;45.586;12.854;2023-06-22T01:18:16;14.80;;;13.23;;
14599;SDS011;7386;45.586;12.854;2023-06-22T01:20:45;15.18;;;12.45;;
14599;SDS011;7386;45.586;12.854;2023-06-22T01:23:17;13.60;;;12.27;;
14599;SDS011;7386;45.586;12.854;2023-06-22T01:25:53;14.27;;;12.63;;
14599;SDS011;7386;45.586;12.854;2023-06-22T01:31:16;13.68;;;12.25;;
14599;SDS011;7386;45.586;12.854;2023-06-22T01:33:45;14.20;;;12.10;;
14599;SDS011;7386;45.586;12.854;2023-06-22T01:36:15;12.80;;;11.48;;
14599;SDS011;7386;45.586;12.854;2023-06-22T01:38:44;14.25;;;12.75;;
14599;SDS011;7386;45.586;12.854;2023-06-22T01:41:13;14.15;;;12.65;;
14599;SDS011;7386;45.586;12.854;2023-06-22T01:43:43;14.80;;;13.23;;
14599;SDS011;7386;45.586;12.854;2023-06-22T01:46:12;14.15;;;12.57;;
14599;SDS011;7386;45.586;12.854;2023-06-22T01:48:42;14.35;;;12.85;;
14599;SDS011;7386;45.586;12.854;2023-06-22T01:51:10;14.05;;;11.73;;
14599;SDS011;7386;45.586;12.854;2023-06-22T01:53:39;13.75;;;12.35;;
14599;SDS011;7386;45.586;12.854;2023-06-22T01:56:08;13.68;;;12.30;;
14599;SDS011;7386;45.586;12.854;2023-06-22T01:58:38;13.18;;;11.77;;
14599;SDS011;7386;45.586;12.854;2023-06-22T02:01:10;13.80;;;12.40;;
14599;SDS011;7386;45.586;12.854;2023-06-22T02:03:40;17.77;;;13.25;;
14599;SDS011;7386;45.586;12.854;2023-06-22T02:06:13;13.50;;;12.20;;
14599;SDS011;7386;45.586;12.854;2023-06-22T02:08:45;14.90;;;13.02;;
14599;SDS011;7386;45.586;12.854;2023-06-22T02:11:15;13.93;;;12.43;;
14599;SDS011;7386;45.586;12.854;2023-06-22T02:13:53;14.40;;;12.65;;
14599;SDS011;7386;45.586;12.854;2023-06-22T02:16:22;14.02;;;12.63;;
14599;SDS011;7386;45.586;12.854;2023-06-22T02:18:50;13.65;;;12.25;;
14599;SDS011;7386;45.586;12.854;2023-06-22T02:21:19;15.10;;;13.48;;
14599;SDS011;7386;45.586;12.854;2023-06-22T02:23:48;13.93;;;12.50;;
14599;SDS011;7386;45.586;12.854;2023-06-22T02:26:17;15.88;;;12.75;;
14599;SDS011;7386;45.586;12.854;2023-06-22T02:28:46;13.63;;;12.23;;
14599;SDS011;7386;45.586;12.854;2023-06-22T02:31:15;14.57;;;12.38;;
14599;SDS011;7386;45.586;12.854;2023-06-22T02:33:44;13.50;;;12.10;;
14599;SDS011;7386;45.586;12.854;2023-06-22T02:36:12;13.07;;;11.77;;
14599;SDS011;7386;45.586;12.854;2023-06-22T02:38:41;13.45;;;12.15;;
14599;SDS011;7386;45.586;12.854;2023-06-22T02:41:14;12.68;;;11.38;;
14599;SDS011;7386;45.586;12.854;2023-06-22T02:43:44;12.70;;;11.40;;
14599;SDS011;7386;45.586;12.854;2023-06-22T02:46:13;12.65;;;11.35;;
14599;SDS011;7386;45.586;12.854;2023-06-22T02:48:43;12.82;;;11.48;;
14599;SDS011;7386;45.586;12.854;2023-06-22T02:51:12;12.80;;;11.23;;
14599;SDS011;7386;45.586;12.854;2023-06-22T02:53:41;12.70;;;10.93;;
14599;SDS011;7386;45.586;12.854;2023-06-22T02:56:11;11.50;;;10.30;;
14599;SDS011;7386;45.586;12.854;2023-06-22T02:58:40;13.05;;;11.65;;
14599;SDS011;7386;45.586;12.854;2023-06-22T03:01:09;14.75;;;11.63;;
14599;SDS011;7386;45.586;12.854;2023-06-22T03:03:39;14.98;;;12.77;;
14599;SDS011;7386;45.586;12.854;2023-06-22T03:06:09;15.00;;;12.60;;
14599;SDS011;7386;45.586;12.854;2023-06-22T03:08:40;14.23;;;12.80;;
14599;SDS011;7386;45.586;12.854;2023-06-22T03:11:09;15.07;;;12.93;;
14599;SDS011;7386;45.586;12.854;2023-06-22T03:13:37;16.75;;;13.95;;
14599;SDS011;7386;45.586;12.854;2023-06-22T03:16:06;17.45;;;14.50;;
14599;SDS011;7386;45.586;12.854;2023-06-22T03:18:34;17.50;;;15.70;;
14599;SDS011;7386;45.586;12.854;2023-06-22T03:21:03;15.95;;;14.35;;
14599;SDS011;7386;45.586;12.854;2023-06-22T03:23:33;19.15;;;15.95;;
14599;SDS011;7386;45.586;12.854;2023-06-22T03:26:01;19.60;;;17.60;;
14599;SDS011;7386;45.586;12.854;2023-06-22T03:28:30;20.25;;;17.48;;
14599;SDS011;7386;45.586;12.854;2023-06-22T03:30:59;20.48;;;18.45;;
14599;SDS011;7386;45.586;12.854;2023-06-22T03:33:27;21.15;;;18.92;;
14599;SDS011;7386;45.586;12.854;2023-06-22T03:35:56;22.73;;;20.00;;
14599;SDS011;7386;45.586;12.854;2023-06-22T03:38:24;23.88;;;21.48;;
14599;SDS011;7386;45.586;12.854;2023-06-22T03:40:54;25.02;;;20.20;;
14599;SDS011;7386;45.586;12.854;2023-06-22T03:43:22;25.60;;;22.83;;
14599;SDS011;7386;45.586;12.854;2023-06-22T03:45:51;28.27;;;24.45;;
14599;SDS011;7386;45.586;12.854;2023-06-22T03:48:20;28.10;;;25.02;;
14599;SDS011;7386;45.586;12.854;2023-06-22T03:50:48;29.27;;;25.83;;
14599;SDS011;7386;45.586;12.854;2023-06-22T03:53:16;27.58;;;23.77;;
14599;SDS011;7386;45.586;12.854;2023-06-22T03:55:48;28.55;;;25.45;;
14599;SDS011;7386;45.586;12.854;2023-06-22T03:58:19;30.02;;;24.63;;
14599;SDS011;7386;45.586;12.854;2023-06-22T04:00:48;31.05;;;24.45;;
14599;SDS011;7386;45.586;12.854;2023-06-22T04:03:17;24.38;;;21.77;;
14599;SDS011;7386;45.586;12.854;2023-06-22T04:05:46;27.60;;;23.52;;
14599;SDS011;7386;45.586;12.854;2023-06-22T04:08:15;26.48;;;23.40;;
14599;SDS011;7386;45.586;12.854;2023-06-22T04:10:44;24.80;;;22.23;;
14599;SDS011;7386;45.586;12.854;2023-06-22T04:13:12;28.92;;;25.88;;
14599;SDS011;7386;45.586;12.854;2023-06-22T04:15:42;31.23;;;25.77;;
14599;SDS011;7386;45.586;12.854;2023-06-22T04:18:11;24.80;;;22.10;;
14599;SDS011;7386;45.586;12.854;2023-06-22T04:20:40;25.35;;;21.75;;
14599;SDS011;7386;45.586;12.854;2023-06-22T04:23:08;25.98;;;23.27;;
14599;SDS011;7386;45.586;12.854;2023-06-22T04:25:37;25.02;;;22.00;;
14599;SDS011;7386;45.586;12.854;2023-06-22T04:28:05;28.25;;;24.50;;
14599;SDS011;7386;45.586;12.854;2023-06-22T04:30:39;29.05;;;24.05;;
14599;SDS011;7386;45.586;12.854;2023-06-22T04:33:14;28.67;;;23.83;;
14599;SDS011;7386;45.586;12.854;2023-06-22T04:35:44;25.27;;;22.15;;
14599;SDS011;7386;45.586;12.854;2023-06-22T04:38:13;25.83;;;22.80;;
14599;SDS011;7386;45.586;12.854;2023-06-22T04:40:41;25.08;;;22.50;;
14599;SDS011;7386;45.586;12.854;2023-06-22T04:43:10;28.13;;;22.13;;
14599;SDS011;7386;45.586;12.854;2023-06-22T04:45:38;24.67;;;21.98;;
14599;SDS011;7386;45.586;12.854;2023-06-22T04:48:07;28.67;;;25.30;;
14599;SDS011;7386;45.586;12.854;2023-06-22T04:50:37;24.95;;;22.33;;
14599;SDS011;7386;45.586;12.854;2023-06-22T04:53:06;25.33;;;22.60;;
14599;SDS011;7386;45.586;12.854;2023-06-22T04:55:36;24.52;;;21.92;;
14599;SDS011;7386;45.586;12.854;2023-06-22T04:58:08;23.92;;;21.35;;
14599;SDS011;7386;45.586;12.854;2023-06-22T05:00:39;24.83;;;22.27;;
14599;SDS011;7386;45.586;12.854;2023-06-22T05:03:07;24.90;;;22.25;;
14599;SDS011;7386;45.586;12.854;2023-06-22T05:05:47;25.13;;;21.85;;
14599;SDS011;7386;45.586;12.854;2023-06-22T05:08:16;23.27;;;20.88;;
14599;SDS011;7386;45.586;12.854;2023-06-22T05:10:44;21.27;;;19.15;;
14599;SDS011;7386;45.586;12.854;2023-06-22T05:13:30;24.15;;;21.52;;
14599;SDS011;7386;45.586;12.854;2023-06-22T05:15:59;24.60;;;22.10;;
14599;SDS011;7386;45.586;12.854;2023-06-22T05:18:29;23.30;;;20.90;;
14599;SDS011;7386;45.586;12.854;2023-06-22T05:21:00;24.13;;;21.63;;
14599;SDS011;7386;45.586;12.854;2023-06-22T05:23:29;24.58;;;22.10;;
14599;SDS011;7386;45.586;12.854;2023-06-22T05:25:58;24.10;;;21.50;;
14599;SDS011;7386;45.586;12.854;2023-06-22T05:28:26;23.00;;;20.27;;
14599;SDS011;7386;45.586;12.854;2023-06-22T05:30:54;23.42;;;20.85;;
14599;SDS011;7386;45.586;12.854;2023-06-22T05:33:23;24.02;;;21.52;;
14599;SDS011;7386;45.586;12.854;2023-06-22T05:35:51;23.35;;;21.08;;
14599;SDS011;7386;45.586;12.854;2023-06-22T05:38:21;21.70;;;19.40;;
14599;SDS011;7386;45.586;12.854;2023-06-22T05:40:50;21.95;;;19.75;;
14599;SDS011;7386;45.586;12.854;2023-06-22T05:43:18;21.40;;;19.30;;
14599;SDS011;7386;45.586;12.854;2023-06-22T05:45:47;20.52;;;18.42;;
14599;SDS011;7386;45.586;12.854;2023-06-22T05:48:15;22.63;;;19.60;;
14599;SDS011;7386;45.586;12.854;2023-06-22T05:50:44;20.70;;;18.65;;
14599;SDS011;7386;45.586;12.854;2023-06-22T05:53:12;22.55;;;17.90;;
14599;SDS011;7386;45.586;12.854;2023-06-22T05:55:42;19.92;;;16.55;;
14599;SDS011;7386;45.586;12.854;2023-06-22T05:58:11;17.95;;;16.15;;
14599;SDS011;7386;45.586;12.854;2023-06-22T06:00:39;17.67;;;15.80;;
14599;SDS011;7386;45.586;12.854;2023-06-22T06:03:09;17.83;;;16.10;;
14599;SDS011;7386;45.586;12.854;2023-06-22T06:05:40;17.50;;;15.85;;
14599;SDS011;7386;45.586;12.854;2023-06-22T06:08:09;19.48;;;17.40;;
14599;SDS011;7386;45.586;12.854;2023-06-22T06:10:38;18.35;;;16.55;;
14599;SDS011;7386;45.586;12.854;2023-06-22T06:13:08;18.92;;;17.02;;
14599;SDS011;7386;45.586;12.854;2023-06-22T06:15:37;18.63;;;16.90;;
14599;SDS011;7386;45.586;12.854;2023-06-22T06:18:06;18.63;;;16.75;;
14599;SDS011;7386;45.586;12.854;2023-06-22T06:20:34;20.98;;;17.70;;
14599;SDS011;7386;45.586;12.854;2023-06-22T06:23:03;18.73;;;16.83;;
14599;SDS011;7386;45.586;12.854;2023-06-22T06:25:31;21.63;;;16.45;;
14599;SDS011;7386;45.586;12.854;2023-06-22T06:28:00;15.98;;;14.45;;
14599;SDS011;7386;45.586;12.854;2023-06-22T06:30:30;16.17;;;14.68;;
14599;SDS011;7386;45.586;12.854;2023-06-22T06:32:59;16.38;;;14.68;;
14599;SDS011;7386;45.586;12.854;2023-06-22T06:35:27;17.02;;;15.43;;
14599;SDS011;7386;45.586;12.854;2023-06-22T06:37:56;16.83;;;15.07;;
14599;SDS011;7386;45.586;12.854;2023-06-22T06:40:25;14.48;;;12.88;;
14599;SDS011;7386;45.586;12.854;2023-06-22T06:42:54;11.20;;;10.10;;
14599;SDS011;7386;45.586;12.854;2023-06-22T06:45:23;8.85;;;8.05;;
14599;SDS011;7386;45.586;12.854;2023-06-22T06:47:54;7.57;;;6.82;;
14599;SDS011;7386;45.586;12.854;2023-06-22T06:50:23;6.88;;;6.28;;
14599;SDS011;7386;45.586;12.854;2023-06-22T06:52:52;6.72;;;6.13;;
14599;SDS011;7386;45.586;12.854;2023-06-22T06:55:21;10.35;;;8.52;;
14599;SDS011;7386;45.586;12.854;2023-06-22T06:57:51;12.98;;;9.77;;
14599;SDS011;7386;45.586;12.854;2023-06-22T07:00:20;10.48;;;9.40;;
14599;SDS011;7386;45.586;12.854;2023-06-22T07:02:48;11.82;;;10.63;;
14599;SDS011;7386;45.586;12.854;2023-06-22T07:05:18;11.05;;;9.95;;
14599;SDS011;7386;45.586;12.854;2023-06-22T07:07:47;11.57;;;10.43;;
14599;SDS011;7386;45.586;12.854;2023-06-22T07:10:16;11.35;;;10.05;;
14599;SDS011;7386;45.586;12.854;2023-06-22T07:12:44;13.18;;;11.75;;
14599;SDS011;7386;45.586;12.854;2023-06-22T07:15:13;18.15;;;11.23;;
14599;SDS011;7386;45.586;12.854;2023-06-22T07:17:41;13.55;;;10.50;;
14599;SDS011;7386;45.586;12.854;2023-06-22T07:20:10;10.55;;;9.45;;
14599;SDS011;7386;45.586;12.854;2023-06-22T07:22:41;13.98;;;10.60;;
14599;SDS011;7386;45.586;12.854;2023-06-22T07:25:11;12.18;;;10.45;;
14599;SDS011;7386;45.586;12.854;2023-06-22T07:27:43;13.32;;;11.15;;
14599;SDS011;7386;45.586;12.854;2023-06-22T07:30:12;14.15;;;10.98;;
14599;SDS011;7386;45.586;12.854;2023-06-22T07:32:41;13.55;;;12.15;;
14599;SDS011;7386;45.586;12.854;2023-06-22T07:35:09;13.82;;;11.57;;
14599;SDS011;7386;45.586;12.854;2023-06-22T07:37:38;11.27;;;10.15;;
14599;SDS011;7386;45.586;12.854;2023-06-22T07:40:08;12.13;;;10.82;;
14599;SDS011;7386;45.586;12.854;2023-06-22T07:42:37;14.25;;;12.18;;
14599;SDS011;7386;45.586;12.854;2023-06-22T07:45:06;12.40;;;11.10;;
14599;SDS011;7386;45.586;12.854;2023-06-22T07:47:35;11.63;;;10.43;;
14599;SDS011;7386;45.586;12.854;2023-06-22T07:50:04;11.68;;;10.48;;
14599;SDS011;7386;45.586;12.854;2023-06-22T07:52:33;13.80;;;12.50;;
14599;SDS011;7386;45.586;12.854;2023-06-22T07:55:01;13.23;;;11.57;;
14599;SDS011;7386;45.586;12.854;2023-06-22T07:57:31;11.68;;;10.48;;
14599;SDS011;7386;45.586;12.854;2023-06-22T08:00:01;12.77;;;11.32;;
14599;SDS011;7386;45.586;12.854;2023-06-22T08:02:33;11.05;;;9.88;;
14599;SDS011;7386;45.586;12.854;2023-06-22T08:05:01;11.38;;;10.27;;
14599;SDS011;7386;45.586;12.854;2023-06-22T08:07:46;11.60;;;10.40;;
14599;SDS011;7386;45.586;12.854;2023-06-22T08:10:15;11.95;;;10.77;;
14599;SDS011;7386;45.586;12.854;2023-06-22T08:12:45;11.30;;;10.18;;
14599;SDS011;7386;45.586;12.854;2023-06-22T08:15:13;11.55;;;10.35;;
14599;SDS011;7386;45.586;12.854;2023-06-22T08:17:43;13.48;;;12.05;;
14599;SDS011;7386;45.586;12.854;2023-06-22T08:20:12;17.08;;;14.23;;
14599;SDS011;7386;45.586;12.854;2023-06-22T08:22:41;18.98;;;16.80;;
14599;SDS011;7386;45.586;12.854;2023-06-22T08:25:09;18.15;;;16.08;;
14599;SDS011;7386;45.586;12.854;2023-06-22T08:27:39;17.60;;;15.82;;
14599;SDS011;7386;45.586;12.854;2023-06-22T08:30:09;19.42;;;17.38;;
14599;SDS011;7386;45.586;12.854;2023-06-22T08:32:38;19.00;;;16.88;;
14599;SDS011;7386;45.586;12.854;2023-06-22T08:35:07;17.52;;;15.88;;
14599;SDS011;7386;45.586;12.854;2023-06-22T08:37:36;19.88;;;16.35;;
14599;SDS011;7386;45.586;12.854;2023-06-22T08:40:07;20.02;;;17.92;;
14599;SDS011;7386;45.586;12.854;2023-06-22T08:42:36;19.90;;;16.85;;
14599;SDS011;7386;45.586;12.854;2023-06-22T08:45:05;18.52;;;16.83;;
14599;SDS011;7386;45.586;12.854;2023-06-22T08:47:35;18.63;;;16.52;;
14599;SDS011;7386;45.586;12.854;2023-06-22T08:50:04;20.30;;;17.02;;
14599;SDS011;7386;45.586;12.854;2023-06-22T08:52:34;19.75;;;17.65;;
14599;SDS011;7386;45.586;12.854;2023-06-22T08:55:03;18.77;;;16.60;;
14599;SDS011;7386;45.586;12.854;2023-06-22T08:57:32;17.50;;;15.70;;
14599;SDS011;7386;45.586;12.854;2023-06-22T09:00:01;16.95;;;14.48;;
14599;SDS011;7386;45.586;12.854;2023-06-22T09:02:39;13.73;;;12.32;;
14599;SDS011;7386;45.586;12.854;2023-06-22T09:05:07;15.40;;;13.65;;
14599;SDS011;7386;45.586;12.854;2023-06-22T09:07:36;14.82;;;13.32;;
14599;SDS011;7386;45.586;12.854;2023-06-22T09:10:05;13.25;;;11.90;;
14599;SDS011;7386;45.586;12.854;2023-06-22T09:12:34;14.77;;;12.32;;
14599;SDS011;7386;45.586;12.854;2023-06-22T09:15:04;12.95;;;11.68;;
14599;SDS011;7386;45.586;12.854;2023-06-22T09:17:39;13.05;;;11.77;;
14599;SDS011;7386;45.586;12.854;2023-06-22T09:20:09;12.05;;;10.80;;
14599;SDS011;7386;45.586;12.854;2023-06-22T09:22:38;17.08;;;13.60;;
14599;SDS011;7386;45.586;12.854;2023-06-22T09:25:07;14.07;;;12.60;;
14599;SDS011;7386;45.586;12.854;2023-06-22T09:27:35;12.30;;;11.00;;
14599;SDS011;7386;45.586;12.854;2023-06-22T09:30:04;14.45;;;13.05;;
14599;SDS011;7386;45.586;12.854;2023-06-22T09:32:33;17.65;;;13.70;;
14599;SDS011;7386;45.586;12.854;2023-06-22T09:35:04;12.43;;;11.23;;
14599;SDS011;7386;45.586;12.854;2023-06-22T09:37:33;12.88;;;11.68;;
14599;SDS011;7386;45.586;12.854;2023-06-22T09:40:02;15.02;;;13.50;;
14599;SDS011;7386;45.586;12.854;2023-06-22T09:42:34;15.98;;;14.25;;
14599;SDS011;7386;45.586;12.854;2023-06-22T09:45:03;13.07;;;11.75;;
14599;SDS011;7386;45.586;12.854;2023-06-22T09:47:32;14.27;;;12.88;;
14599;SDS011;7386;45.586;12.854;2023-06-22T09:50:00;14.70;;;13.25;;
14599;SDS011;7386;45.586;12.854;2023-06-22T09:52:31;15.23;;;13.63;;
14599;SDS011;7386;45.586;12.854;2023-06-22T09:55:13;13.27;;;12.00;;
14599;SDS011;7386;45.586;12.854;2023-06-22T09:57:43;14.15;;;12.75;;
14599;SDS011;7386;45.586;12.854;2023-06-22T10:00:12;14.52;;;13.02;;
14599;SDS011;7386;45.586;12.854;2023-06-22T10:02:41;17.38;;;13.70;;
14599;SDS011;7386;45.586;12.854;2023-06-22T10:05:10;14.02;;;12.60;;
14599;SDS011;7386;45.586;12.854;2023-06-22T10:07:41;15.02;;;13.43;;
14599;SDS011;7386;45.586;12.854;2023-06-22T10:10:11;16.38;;;14.20;;
14599;SDS011;7386;45.586;12.854;2023-06-22T10:12:41;17.10;;;14.80;;
14599;SDS011;7386;45.586;12.854;2023-06-22T10:15:11;15.73;;;13.77;;
14599;SDS011;7386;45.586;12.854;2023-06-22T10:17:40;15.82;;;12.93;;
14599;SDS011;7386;45.586;12.854;2023-06-22T10:20:09;13.95;;;12.55;;
14599;SDS011;7386;45.586;12.854;2023-06-22T10:22:43;14.02;;;12.63;;
14599;SDS011;7386;45.586;12.854;2023-06-22T10:25:11;15.48;;;13.77;;
14599;SDS011;7386;45.586;12.854;2023-06-22T10:27:40;15.48;;;13.88;;
14599;SDS011;7386;45.586;12.854;2023-06-22T10:30:09;16.83;;;15.07;;
14599;SDS011;7386;45.586;12.854;2023-06-22T10:32:39;15.23;;;13.65;;
14599;SDS011;7386;45.586;12.854;2023-06-22T10:35:08;15.85;;;13.57;;
14599;SDS011;7386;45.586;12.854;2023-06-22T10:37:41;16.08;;;14.45;;
14599;SDS011;7386;45.586;12.854;2023-06-22T10:40:11;13.82;;;12.38;;
14599;SDS011;7386;45.586;12.854;2023-06-22T10:42:40;14.63;;;12.18;;
14599;SDS011;7386;45.586;12.854;2023-06-22T10:45:08;15.00;;;13.50;;
14599;SDS011;7386;45.586;12.854;2023-06-22T10:47:37;15.23;;;12.55;;
14599;SDS011;7386;45.586;12.854;2023-06-22T10:50:06;17.95;;;14.15;;
14599;SDS011;7386;45.586;12.854;2023-06-22T10:52:35;14.10;;;12.70;;
14599;SDS011;7386;45.586;12.854;2023-06-22T10:55:05;16.48;;;13.85;;
14599;SDS011;7386;45.586;12.854;2023-06-22T10:57:33;18.92;;;15.43;;
14599;SDS011;7386;45.586;12.854;2023-06-22T11:00:03;14.85;;;13.40;;
14599;SDS011;7386;45.586;12.854;2023-06-22T11:02:33;15.38;;;13.77;;
14599;SDS011;7386;45.586;12.854;2023-06-22T11:05:01;15.45;;;13.85;;
14599;SDS011;7386;45.586;12.854;2023-06-22T11:07:30;15.70;;;14.18;;
14599;SDS011;7386;45.586;12.854;2023-06-22T11:09:59;15.27;;;13.77;;
14599;SDS011;7386;45.586;12.854;2023-06-22T11:12:29;14.10;;;12.70;;
14599;SDS011;7386;45.586;12.854;2023-06-22T11:14:57;14.27;;;12.85;;
14599;SDS011;7386;45.586;12.854;2023-06-22T11:17:26;14.07;;;12.63;;
14599;SDS011;7386;45.586;12.854;2023-06-22T11:19:54;14.02;;;12.63;;
14599;SDS011;7386;45.586;12.854;2023-06-22T11:22:23;14.38;;;12.35;;
14599;SDS011;7386;45.586;12.854;2023-06-22T11:24:51;15.25;;;13.65;;
14599;SDS011;7386;45.586;12.854;2023-06-22T11:27:20;13.88;;;12.40;;
14599;SDS011;7386;45.586;12.854;2023-06-22T11:29:50;14.98;;;13.38;;
14599;SDS011;7386;45.586;12.854;2023-06-22T11:32:19;15.68;;;12.57;;
14599;SDS011;7386;45.586;12.854;2023-06-22T11:34:48;12.90;;;11.52;;
14599;SDS011;7386;45.586;12.854;2023-06-22T11:37:16;13.68;;;12.43;;
14599;SDS011;7386;45.586;12.854;2023-06-22T11:39:45;14.65;;;11.65;;
14599;SDS011;7386;45.586;12.854;2023-06-22T11:42:31;13.50;;;12.20;;
14599;SDS011;7386;45.586;12.854;2023-06-22T11:45:01;14.48;;;12.63;;
14599;SDS011;7386;45.586;12.854;2023-06-22T11:47:31;14.45;;;12.95;;
14599;SDS011;7386;45.586;12.854;2023-06-22T11:49:59;12.57;;;11.38;;
14599;SDS011;7386;45.586;12.854;2023-06-22T11:52:28;12.52;;;11.32;;
14599;SDS011;7386;45.586;12.854;2023-06-22T11:54:56;13.02;;;11.77;;
14599;SDS011;7386;45.586;12.854;2023-06-22T11:57:25;11.18;;;10.18;;
14599;SDS011;7386;45.586;12.854;2023-06-22T11:59:54;12.10;;;10.85;;
14599;SDS011;7386;45.586;12.854;2023-06-22T12:02:24;13.45;;;12.20;;
14599;SDS011;7386;45.586;12.854;2023-06-22T12:04:52;13.40;;;11.77;;
14599;SDS011;7386;45.586;12.854;2023-06-22T12:07:22;11.35;;;10.25;;
14599;SDS011;7386;45.586;12.854;2023-06-22T12:09:51;13.50;;;12.10;;
14599;SDS011;7386;45.586;12.854;2023-06-22T12:12:19;13.85;;;12.30;;
14599;SDS011;7386;45.586;12.854;2023-06-22T12:14:48;14.95;;;11.60;;
14599;SDS011;7386;45.586;12.854;2023-06-22T12:17:16;12.07;;;10.88;;
14599;SDS011;7386;45.586;12.854;2023-06-22T12:19:46;15.10;;;11.75;;
14599;SDS011;7386;45.586;12.854;2023-06-22T12:22:16;13.23;;;11.93;;
14599;SDS011;7386;45.586;12.854;2023-06-22T12:24:44;12.30;;;11.00;;
14599;SDS011;7386;45.586;12.854;2023-06-22T12:27:13;14.07;;;11.57;;
14599;SDS011;7386;45.586;12.854;2023-06-22T12:29:42;14.27;;;12.20;;
14599;SDS011;7386;45.586;12.854;2023-06-22T12:32:11;13.77;;;12.27;;
14599;SDS011;7386;45.586;12.854;2023-06-22T12:34:41;13.57;;;12.25;;
14599;SDS011;7386;45.586;12.854;2023-06-22T12:37:11;14.60;;;12.45;;
14599;SDS011;7386;45.586;12.854;2023-06-22T12:39:40;12.93;;;11.45;;
14599;SDS011;7386;45.586;12.854;2023-06-22T12:42:08;13.05;;;11.75;;
14599;SDS011;7386;45.586;12.854;2023-06-22T12:44:38;13.25;;;11.95;;
14599;SDS011;7386;45.586;12.854;2023-06-22T12:47:07;12.27;;;11.07;;
14599;SDS011;7386;45.586;12.854;2023-06-22T12:49:35;12.20;;;10.95;;
14599;SDS011;7386;45.586;12.854;2023-06-22T12:52:08;12.20;;;10.80;;
14599;SDS011;7386;45.586;12.854;2023-06-22T12:54:39;11.75;;;10.30;;
14599;SDS011;7386;45.586;12.854;2023-06-22T12:57:20;11.85;;;10.27;;
14599;SDS011;7386;45.586;12.854;2023-06-22T12:59:48;12.48;;;10.55;;
14599;SDS011;7386;45.586;12.854;2023-06-22T13:02:17;12.23;;;10.85;;
14599;SDS011;7386;45.586;12.854;2023-06-22T13:04:45;10.35;;;9.35;;
14599;SDS011;7386;45.586;12.854;2023-06-22T13:07:14;11.82;;;10.65;;
14599;SDS011;7386;45.586;12.854;2023-06-22T13:09:50;13.27;;;11.05;;
14599;SDS011;7386;45.586;12.854;2023-06-22T13:12:19;10.95;;;9.80;;
14599;SDS011;7386;45.586;12.854;2023-06-22T13:14:48;11.65;;;10.48;;
14599;SDS011;7386;45.586;12.854;2023-06-22T13:17:16;17.02;;;15.25;;
14599;SDS011;7386;45.586;12.854;2023-06-22T13:19:45;16.15;;;14.57;;
14599;SDS011;7386;45.586;12.854;2023-06-22T13:22:27;15.30;;;13.60;;
14599;SDS011;7386;45.586;12.854;2023-06-22T13:24:58;15.63;;;13.32;;
14599;SDS011;7386;45.586;12.854;2023-06-22T13:27:27;35.58;;;21.00;;
14599;SDS011;7386;45.586;12.854;2023-06-22T13:29:55;42.17;;;24.23;;
14599;SDS011;7386;45.586;12.854;2023-06-22T13:32:23;28.75;;;18.50;;
14599;SDS011;7386;45.586;12.854;2023-06-22T13:34:54;19.70;;;14.60;;
14599;SDS011;7386;45.586;12.854;2023-06-22T13:37:22;16.00;;;13.20;;
14599;SDS011;7386;45.586;12.854;2023-06-22T13:39:51;14.15;;;11.77;;
14599;SDS011;7386;45.586;12.854;2023-06-22T13:42:21;17.30;;;12.48;;
14599;SDS011;7386;45.586;12.854;2023-06-22T13:44:50;13.65;;;11.93;;
14599;SDS011;7386;45.586;12.854;2023-06-22T13:47:18;15.20;;;12.25;;
14599;SDS011;7386;45.586;12.854;2023-06-22T13:49:47;13.07;;;11.25;;
14599;SDS011;7386;45.586;12.854;2023-06-22T13:52:15;13.02;;;11.73;;
14599;SDS011;7386;45.586;12.854;2023-06-22T13:54:43;13.27;;;11.77;;
14599;SDS011;7386;45.586;12.854;2023-06-22T13:57:12;13.18;;;11.68;;
14599;SDS011;7386;45.586;12.854;2023-06-22T13:59:42;13.60;;;12.25;;
14599;SDS011;7386;45.586;12.854;2023-06-22T14:02:10;13.02;;;11.75;;
14599;SDS011;7386;45.586;12.854;2023-06-22T14:04:39;12.90;;;11.65;;
14599;SDS011;7386;45.586;12.854;2023-06-22T14:07:07;12.43;;;11.13;;
14599;SDS011;7386;45.586;12.854;2023-06-22T14:09:36;12.07;;;10.95;;
14599;SDS011;7386;45.586;12.854;2023-06-22T14:12:05;14.05;;;11.70;;
14599;SDS011;7386;45.586;12.854;2023-06-22T14:14:35;11.70;;;10.57;;
14599;SDS011;7386;45.586;12.854;2023-06-22T14:17:05;11.93;;;10.73;;
14599;SDS011;7386;45.586;12.854;2023-06-22T14:19:33;12.27;;;10.98;;
14599;SDS011;7386;45.586;12.854;2023-06-22T14:22:02;13.77;;;11.45;;
14599;SDS011;7386;45.586;12.854;2023-06-22T14:24:30;12.45;;;11.20;;
14599;SDS011;7386;45.586;12.854;2023-06-22T14:26:59;13.00;;;11.65;;
14599;SDS011;7386;45.586;12.854;2023-06-22T14:29:29;14.48;;;11.45;;
14599;SDS011;7386;45.586;12.854;2023-06-22T14:31:58;12.30;;;11.00;;
14599;SDS011;7386;45.586;12.854;2023-06-22T14:34:28;12.70;;;11.40;;
14599;SDS011;7386;45.586;12.854;2023-06-22T14:36:57;13.05;;;11.65;;